Terminal Aerodrome Forecast
Issued by NWS Grand Rapids, MI

Home | Current Version | Previous Version | Text Only | Print | Product List | Glossary On
Versions: 1 2 3 4 5 6 7 8 9 10 11 12 13 14
000
FTUS43 KGRR 020520
TAFGRR
TAF
KGRR 020520Z 0206/0306 27012KT P6SM FEW150
     FM021500 24015G25KT P6SM SCT050 BKN150
     FM030000 24020G30KT P6SM VCTS OVC035CB=

USA.gov is the U.S. government's official web portal to all federal, state and local government web resources and services.